Time;durP1;ratioP1;P1;durP2;ratioP2;P2;SDS_P1;SDS_P2;PMS_P1;PMS_P2;Temp;Humidity;BMP_temperature;BMP_pressure;BME280_temperature;BME280_humidity;BME280_pressure;Samples;Min_cycle;Max_cycle;Signal;HPM_P1;HPM_P2
2023/02/06 00:00:05;;;;;;;;;;;-2.20;81.20;;;;;;5005037;28;89686;-37
2023/02/06 00:02:31;;;;;;;;;;;-2.20;81.10;;;;;;5005678;28;87133;-37
2023/02/06 00:04:56;;;;;;;;;;;-2.20;81.10;;;;;;5005518;28;87429;-37
2023/02/06 00:07:22;;;;;;;;;;;-2.20;81.20;;;;;;5004993;28;87993;-37
2023/02/06 00:09:47;;;;;;;;;;;-2.20;81.10;;;;;;5005218;28;87110;-37
2023/02/06 00:12:13;;;;;;;;;;;-2.20;81.20;;;;;;5007712;28;89038;-37
2023/02/06 00:14:38;;;;;;;;;;;-2.20;81.20;;;;;;5005899;28;86749;-37
2023/02/06 00:17:04;;;;;;;;;;;-2.30;81.20;;;;;;5005056;28;88551;-37
2023/02/06 00:19:29;;;;;;;;;;;-2.20;81.20;;;;;;5004413;28;88616;-37
2023/02/06 00:21:55;;;;;;;;;;;-2.30;81.10;;;;;;5004845;28;88260;-38
2023/02/06 00:24:20;;;;;;;;;;;-2.30;81.80;;;;;;5005558;28;88360;-37
2023/02/06 00:26:46;;;;;;;;;;;-2.30;81.20;;;;;;5004687;28;89582;-38
2023/02/06 00:29:11;;;;;;;;;;;-2.30;81.20;;;;;;5005197;28;87286;-38
2023/02/06 00:31:37;;;;;;;;;;;-2.30;81.10;;;;;;5007603;28;89125;-37
2023/02/06 00:34:03;;;;;;;;;;;-2.20;81.20;;;;;;5005333;28;87104;-37
2023/02/06 00:36:28;;;;;;;;;;;-2.30;81.20;;;;;;5005081;28;87621;-37
2023/02/06 00:38:54;;;;;;;;;;;-2.30;81.20;;;;;;5005510;28;86909;-37
2023/02/06 00:41:19;;;;;;;;;;;-2.30;81.10;;;;;;5005226;28;87167;-37
2023/02/06 00:43:45;;;;;;;;;;;-2.30;81.00;;;;;;5005132;28;87184;-37
2023/02/06 00:46:10;;;;;;;;;;;-2.30;81.00;;;;;;5003623;28;90546;-37
2023/02/06 00:48:36;;;;;;;;;;;-2.30;81.00;;;;;;5004547;28;87148;-38
2023/02/06 00:51:02;;;;;;;;;;;-2.30;81.00;;;;;;5004739;28;88051;-38
2023/02/06 00:53:27;;;;;;;;;;;-2.30;80.90;;;;;;5006942;28;89400;-38
2023/02/06 00:55:53;;;;;;;;;;;-2.30;81.00;;;;;;5004876;28;88463;-37
2023/02/06 00:58:18;;;;;;;;;;;-2.40;81.00;;;;;;5004353;28;89790;-37
2023/02/06 01:00:44;;;;;;;;;;;-2.30;81.10;;;;;;5004732;28;87164;-38
2023/02/06 01:03:09;;;;;;;;;;;-2.40;81.00;;;;;;5005120;28;88292;-38
2023/02/06 01:05:35;;;;;;;;;;;-2.30;81.00;;;;;;5003397;28;89778;-37
2023/02/06 01:08:00;;;;;;;;;;;-2.40;81.00;;;;;;5004417;28;87177;-37
2023/02/06 01:10:26;;;;;;;;;;;-2.40;81.00;;;;;;5004211;28;88028;-37
2023/02/06 01:12:51;;;;;;;;;;;-2.40;80.90;;;;;;5004147;28;88306;-37
2023/02/06 01:15:17;;;;;;;;;;;-2.40;80.90;;;;;;5007277;28;87280;-37
2023/02/06 01:17:42;;;;;;;;;;;-2.40;80.80;;;;;;5003752;28;89469;-37
2023/02/06 01:20:09;;;;;;;;;;;-2.40;80.70;;;;;;5004209;28;87130;-37
2023/02/06 01:22:35;;;;;;;;;;;-2.40;80.60;;;;;;5004083;28;89843;-37
2023/02/06 01:25:01;;;;;;;;;;;-2.40;80.80;;;;;;5003838;28;89083;-37
2023/02/06 01:27:27;;;;;;;;;;;-2.50;80.90;;;;;;5005007;28;86338;-37
2023/02/06 01:29:53;;;;;;;;;;;-2.50;80.90;;;;;;5004432;28;87025;-37
2023/02/06 01:32:18;;;;;;;;;;;-2.50;80.90;;;;;;5003764;28;89656;-37
2023/02/06 01:34:44;;;;;;;;;;;-2.50;80.90;;;;;;5003445;28;88029;-37
2023/02/06 01:37:09;;;;;;;;;;;-2.50;80.90;;;;;;5006444;28;90068;-37
2023/02/06 01:39:34;;;;;;;;;;;-2.50;81.00;;;;;;5004053;28;88284;-37
2023/02/06 01:42:00;;;;;;;;;;;-2.50;80.90;;;;;;5004040;28;88238;-37
2023/02/06 01:44:26;;;;;;;;;;;-2.50;81.00;;;;;;5003557;28;89413;-37
2023/02/06 01:46:53;;;;;;;;;;;-2.50;81.00;;;;;;5003767;28;87090;-37
2023/02/06 01:49:28;;;;;;;;;;;-2.50;81.00;;;;;;5003730;28;88757;-37
2023/02/06 01:51:57;;;;;;;;;;;-2.50;81.00;;;;;;5004113;28;87788;-37
2023/02/06 01:54:22;;;;;;;;;;;-2.50;80.90;;;;;;5003779;28;87113;-37
2023/02/06 01:56:50;;;;;;;;;;;-2.50;80.90;;;;;;5003854;28;87329;-37
2023/02/06 01:59:16;;;;;;;;;;;-2.50;81.00;;;;;;5005582;28;89556;-37
2023/02/06 02:01:42;;;;;;;;;;;-2.60;81.10;;;;;;5003555;28;90003;-38
2023/02/06 02:04:11;;;;;;;;;;;-2.60;81.00;;;;;;5002350;28;89367;-37
2023/02/06 02:06:38;;;;;;;;;;;-2.60;81.10;;;;;;5002893;28;87115;-37
2023/02/06 02:09:05;;;;;;;;;;;-2.60;81.50;;;;;;5003630;28;88185;-37
2023/02/06 02:11:35;;;;;;;;;;;-2.50;80.70;;;;;;5003080;28;89408;-38
2023/02/06 02:14:01;;;;;;;;;;;-2.50;80.60;;;;;;5003507;28;87077;-37
2023/02/06 02:16:36;;;;;;;;;;;-2.50;80.50;;;;;;5003897;28;88863;-37
2023/02/06 02:19:01;;;;;;;;;;;-2.50;80.30;;;;;;5002791;28;89754;-38
2023/02/06 02:21:54;;;;;;;;;;;-2.60;80.20;;;;;;5006077;28;87058;-38
2023/02/06 02:24:26;;;;;;;;;;;-2.50;80.20;;;;;;5002623;28;89308;-38
2023/02/06 02:26:52;;;;;;;;;;;-2.60;80.30;;;;;;5003211;28;87193;-37
2023/02/06 02:29:23;;;;;;;;;;;-2.60;80.40;;;;;;5002873;28;88932;-37
2023/02/06 02:31:51;;;;;;;;;;;-2.60;80.40;;;;;;5003158;28;88042;-37
2023/02/06 02:34:36;;;;;;;;;;;-2.60;80.50;;;;;;5003005;28;87248;-37
2023/02/06 02:37:07;;;;;;;;;;;-2.60;80.50;;;;;;5003342;28;88918;-37
2023/02/06 02:39:35;;;;;;;;;;;-2.60;80.40;;;;;;5003020;28;87891;-38
2023/02/06 02:42:11;;;;;;;;;;;-2.60;80.40;;;;;;5006335;28;86416;-37
2023/02/06 02:44:46;;;;;;;;;;;-2.60;80.50;;;;;;5002530;28;89572;-37
2023/02/06 02:47:13;;;;;;;;;;;-2.60;80.40;;;;;;5002791;28;87108;-38
2023/02/06 02:49:40;;;;;;;;;;;-2.60;80.70;;;;;;5002176;28;87967;-37
2023/02/06 02:52:05;;;;;;;;;;;-2.70;80.60;;;;;;5002408;28;90036;-38
2023/02/06 02:54:31;;;;;;;;;;;-2.60;80.60;;;;;;5002823;28;87916;-37
2023/02/06 02:57:00;;;;;;;;;;;-2.60;80.70;;;;;;5002784;28;87841;-38
2023/02/06 02:59:33;;;;;;;;;;;-2.70;80.60;;;;;;5002335;28;89458;-37
2023/02/06 03:02:20;;;;;;;;;;;-2.70;80.70;;;;;;5002800;28;87064;-38
2023/02/06 03:05:03;;;;;;;;;;;-2.70;80.70;;;;;;5005106;28;88625;-37
2023/02/06 03:07:49;;;;;;;;;;;-2.70;80.70;;;;;;4963991;28;86635;-37
2023/02/06 03:10:27;;;;;;;;;;;-2.70;80.80;;;;;;4958767;28;88145;-37
2023/02/06 03:13:00;;;;;;;;;;;-2.70;80.80;;;;;;4962819;28;89490;-37
2023/02/06 03:15:29;;;;;;;;;;;-2.70;80.70;;;;;;4962236;28;88244;-37
2023/02/06 03:17:54;;;;;;;;;;;-2.70;80.70;;;;;;4961887;28;89129;-38
2023/02/06 03:20:21;;;;;;;;;;;-2.70;81.10;;;;;;4962571;28;89492;-37
2023/02/06 03:22:48;;;;;;;;;;;-2.70;80.60;;;;;;4962953;28;86898;-37
2023/02/06 03:25:17;;;;;;;;;;;-2.70;80.60;;;;;;4962854;28;88777;-38
2023/02/06 03:27:44;;;;;;;;;;;-2.70;80.60;;;;;;4965535;28;88449;-37
2023/02/06 03:30:11;;;;;;;;;;;-2.70;80.60;;;;;;4962805;28;88895;-37
2023/02/06 03:32:40;;;;;;;;;;;-2.80;80.70;;;;;;4963019;28;88515;-37
2023/02/06 03:35:11;;;;;;;;;;;-2.80;80.60;;;;;;4962807;28;87037;-37
2023/02/06 03:37:37;;;;;;;;;;;-2.80;80.50;;;;;;4963141;28;87429;-37
2023/02/06 03:40:04;;;;;;;;;;;-2.80;80.50;;;;;;4961896;28;90187;-38
2023/02/06 03:42:30;;;;;;;;;;;-2.80;80.60;;;;;;4962548;28;87201;-37
2023/02/06 03:45:07;;;;;;;;;;;-2.80;80.50;;;;;;4962620;28;88871;-37
2023/02/06 03:47:34;;;;;;;;;;;-2.80;80.50;;;;;;4962434;28;89211;-37
2023/02/06 03:50:02;;;;;;;;;;;-2.80;80.60;;;;;;4965185;28;87137;-37
2023/02/06 03:52:34;;;;;;;;;;;-2.80;80.60;;;;;;4962218;28;89207;-37
2023/02/06 03:55:02;;;;;;;;;;;-2.80;80.50;;;;;;4962392;28;87086;-37
2023/02/06 03:57:30;;;;;;;;;;;-2.80;80.50;;;;;;4962957;28;88971;-38
2023/02/06 03:59:56;;;;;;;;;;;-2.80;80.40;;;;;;4962276;28;86703;-37
2023/02/06 04:02:23;;;;;;;;;;;-2.80;80.30;;;;;;4962392;28;86817;-37
2023/02/06 04:04:48;;;;;;;;;;;-2.80;80.40;;;;;;4961791;28;88960;-37
2023/02/06 04:07:28;;;;;;;;;;;-2.80;80.40;;;;;;4998930;28;89304;-37
2023/02/06 04:09:53;;;;;;;;;;;-2.80;80.50;;;;;;5001643;28;87034;-37
2023/02/06 04:12:19;;;;;;;;;;;-2.80;80.50;;;;;;5004439;28;88821;-38
2023/02/06 04:14:45;;;;;;;;;;;-2.90;80.50;;;;;;5001644;28;87059;-37
2023/02/06 04:17:11;;;;;;;;;;;-2.90;80.60;;;;;;5001831;28;88797;-37
2023/02/06 04:19:37;;;;;;;;;;;-2.90;80.60;;;;;;5001339;28;89741;-37
2023/02/06 04:22:03;;;;;;;;;;;-2.90;80.70;;;;;;5002323;28;86367;-37
2023/02/06 04:24:28;;;;;;;;;;;-2.90;80.70;;;;;;5001948;28;87061;-37
2023/02/06 04:26:54;;;;;;;;;;;-2.90;80.70;;;;;;5001382;28;89621;-37
2023/02/06 04:29:19;;;;;;;;;;;-2.90;80.70;;;;;;5004084;28;88070;-37
2023/02/06 04:31:45;;;;;;;;;;;-2.90;80.70;;;;;;5007526;28;89806;-37
2023/02/06 04:34:10;;;;;;;;;;;-2.90;80.80;;;;;;5005116;28;87134;-37
2023/02/06 04:36:36;;;;;;;;;;;-3.00;80.80;;;;;;5005089;28;88948;-38
2023/02/06 04:39:02;;;;;;;;;;;-3.00;80.80;;;;;;5004397;28;88476;-37
2023/02/06 04:41:27;;;;;;;;;;;-2.90;80.90;;;;;;5005221;28;87111;-37
2023/02/06 04:43:53;;;;;;;;;;;-3.00;80.80;;;;;;5005131;28;87386;-37
2023/02/06 04:46:19;;;;;;;;;;;-3.00;80.80;;;;;;5004902;28;88577;-37
2023/02/06 04:48:44;;;;;;;;;;;-3.00;80.70;;;;;;5005049;28;87184;-37
2023/02/06 04:51:09;;;;;;;;;;;-3.00;80.70;;;;;;5005183;28;87575;-38
2023/02/06 04:53:35;;;;;;;;;;;-3.00;80.80;;;;;;5006389;28;90299;-37
2023/02/06 04:56:01;;;;;;;;;;;-3.00;80.80;;;;;;5004707;28;89918;-38
2023/02/06 04:58:27;;;;;;;;;;;-3.00;80.80;;;;;;5004211;28;88656;-37
2023/02/06 05:00:52;;;;;;;;;;;-3.00;80.80;;;;;;5004578;28;87039;-37
2023/02/06 05:03:18;;;;;;;;;;;-3.00;80.90;;;;;;5004953;28;87382;-37
2023/02/06 05:05:43;;;;;;;;;;;-3.00;80.80;;;;;;5003935;28;89819;-37
2023/02/06 05:08:09;;;;;;;;;;;-3.00;80.70;;;;;;5004510;28;86856;-37
2023/02/06 05:10:34;;;;;;;;;;;-3.00;80.90;;;;;;5004998;28;88860;-37
2023/02/06 05:13:00;;;;;;;;;;;-3.00;80.90;;;;;;5004189;28;89650;-37
2023/02/06 05:15:25;;;;;;;;;;;-3.00;80.90;;;;;;5007154;28;87720;-37
2023/02/06 05:17:51;;;;;;;;;;;-3.10;80.90;;;;;;5002944;28;90154;-37
2023/02/06 05:20:17;;;;;;;;;;;-3.10;80.80;;;;;;5004635;28;87110;-37
2023/02/06 05:22:43;;;;;;;;;;;-3.10;80.70;;;;;;5004558;28;87042;-37
2023/02/06 05:25:08;;;;;;;;;;;-3.00;80.60;;;;;;5003734;28;89248;-37
2023/02/06 05:27:34;;;;;;;;;;;-3.10;80.60;;;;;;5004209;28;87215;-38
2023/02/06 05:29:59;;;;;;;;;;;-3.10;80.70;;;;;;5004401;28;87337;-37
2023/02/06 05:32:25;;;;;;;;;;;-3.10;80.70;;;;;;5003734;28;89284;-37
2023/02/06 05:34:51;;;;;;;;;;;-3.10;80.80;;;;;;5004479;28;86402;-37
2023/02/06 05:37:16;;;;;;;;;;;-3.10;80.80;;;;;;5006534;28;88273;-38
2023/02/06 05:39:41;;;;;;;;;;;-3.10;80.80;;;;;;5003107;28;87143;-37
2023/02/06 05:42:07;;;;;;;;;;;-3.10;80.80;;;;;;5003403;28;88866;-37
2023/02/06 05:44:32;;;;;;;;;;;-3.10;80.80;;;;;;5003757;28;87901;-37
2023/02/06 05:46:58;;;;;;;;;;;-3.20;80.80;;;;;;5003757;28;87101;-37
2023/02/06 05:49:23;;;;;;;;;;;-3.10;80.90;;;;;;5003941;28;88078;-37
2023/02/06 05:51:49;;;;;;;;;;;-3.20;80.90;;;;;;5003644;28;87665;-37
2023/02/06 05:54:17;;;;;;;;;;;-3.20;80.90;;;;;;5004116;28;87594;-37
2023/02/06 05:56:43;;;;;;;;;;;-3.20;81.00;;;;;;5003898;28;88972;-37
2023/02/06 05:59:08;;;;;;;;;;;-3.20;81.00;;;;;;5006761;28;88646;-37
2023/02/06 06:01:34;;;;;;;;;;;-3.20;81.00;;;;;;5003760;28;88123;-37
2023/02/06 06:03:59;;;;;;;;;;;-3.20;81.00;;;;;;5003184;28;89365;-37
2023/02/06 06:06:25;;;;;;;;;;;-3.20;81.10;;;;;;5002632;28;88044;-37
2023/02/06 06:08:50;;;;;;;;;;;-3.20;81.00;;;;;;5003149;28;88787;-37
2023/02/06 06:11:16;;;;;;;;;;;-3.20;80.90;;;;;;5003215;28;88573;-37
2023/02/06 06:13:42;;;;;;;;;;;-3.20;81.00;;;;;;5003659;28;87083;-37
2023/02/06 06:16:07;;;;;;;;;;;-3.30;81.00;;;;;;5003357;28;88017;-37
2023/02/06 06:18:33;;;;;;;;;;;-3.20;81.10;;;;;;5002910;28;89509;-37
2023/02/06 06:20:58;;;;;;;;;;;-3.20;81.10;;;;;;5006295;28;86992;-37
2023/02/06 06:23:24;;;;;;;;;;;-3.20;81.00;;;;;;5003075;28;88789;-37
2023/02/06 06:25:49;;;;;;;;;;;-3.20;81.10;;;;;;5003334;28;87133;-37
2023/02/06 06:28:15;;;;;;;;;;;-3.20;81.00;;;;;;5003213;28;88851;-37
2023/02/06 06:30:40;;;;;;;;;;;-3.30;81.00;;;;;;5002068;28;89431;-37
2023/02/06 06:33:06;;;;;;;;;;;-3.20;81.00;;;;;;5003462;28;87099;-37
2023/02/06 06:35:31;;;;;;;;;;;-3.20;81.00;;;;;;5003491;28;87720;-37
2023/02/06 06:37:57;;;;;;;;;;;-3.30;80.90;;;;;;5002603;28;89685;-37
2023/02/06 06:40:22;;;;;;;;;;;-3.20;80.80;;;;;;5006413;28;87086;-37
2023/02/06 06:42:48;;;;;;;;;;;-3.20;80.70;;;;;;5002680;28;89690;-37
2023/02/06 06:45:13;;;;;;;;;;;-3.30;80.70;;;;;;5002892;28;87617;-37
2023/02/06 06:47:39;;;;;;;;;;;-3.30;80.70;;;;;;5003552;28;88720;-37
2023/02/06 06:50:05;;;;;;;;;;;-3.30;80.90;;;;;;5002439;28;87924;-37
2023/02/06 06:52:31;;;;;;;;;;;-3.30;80.80;;;;;;5002787;28;86975;-37
2023/02/06 06:54:56;;;;;;;;;;;-3.20;80.80;;;;;;5002203;28;88789;-37
2023/02/06 06:57:22;;;;;;;;;;;-3.20;80.70;;;;;;5002473;28;89642;-37
2023/02/06 06:59:48;;;;;;;;;;;-3.20;80.60;;;;;;5003153;28;87190;-37
2023/02/06 07:02:13;;;;;;;;;;;-3.20;80.60;;;;;;5005105;28;88912;-37
2023/02/06 07:04:39;;;;;;;;;;;-3.30;80.60;;;;;;5002957;28;87108;-36
2023/02/06 07:07:05;;;;;;;;;;;-3.20;80.50;;;;;;5002275;28;88992;-37
2023/02/06 07:09:30;;;;;;;;;;;-3.20;80.20;;;;;;5002371;28;89208;-37
2023/02/06 07:11:56;;;;;;;;;;;-3.20;80.10;;;;;;5003086;28;86690;-37
2023/02/06 07:14:21;;;;;;;;;;;-3.20;80.00;;;;;;5002549;28;88311;-38
2023/02/06 07:16:47;;;;;;;;;;;-3.20;80.00;;;;;;5002260;28;89894;-37
2023/02/06 07:19:12;;;;;;;;;;;-3.20;80.00;;;;;;5001443;28;88142;-37
2023/02/06 07:21:38;;;;;;;;;;;-3.20;80.10;;;;;;5002421;28;89746;-37
2023/02/06 07:24:04;;;;;;;;;;;-3.20;80.10;;;;;;5005183;28;88086;-37
2023/02/06 07:26:29;;;;;;;;;;;-3.30;80.10;;;;;;5002389;28;87458;-37
2023/02/06 07:28:55;;;;;;;;;;;-3.20;80.10;;;;;;5002156;28;88015;-38
2023/02/06 07:31:20;;;;;;;;;;;-3.20;80.10;;;;;;5002439;28;86950;-37
2023/02/06 07:33:46;;;;;;;;;;;-3.20;80.10;;;;;;5002210;28;88892;-37
2023/02/06 07:36:12;;;;;;;;;;;-3.20;80.10;;;;;;5002393;28;89134;-37
2023/02/06 07:38:38;;;;;;;;;;;-3.20;80.10;;;;;;5002231;28;87173;-37
2023/02/06 07:41:03;;;;;;;;;;;-3.20;80.00;;;;;;5002338;28;87769;-37
2023/02/06 07:43:29;;;;;;;;;;;-3.20;80.00;;;;;;5001155;28;90368;-37
2023/02/06 07:46:02;;;;;;;;;;;-3.20;80.00;;;;;;5005141;28;87112;-37
2023/02/06 07:48:28;;;;;;;;;;;-3.30;80.00;;;;;;5002005;28;88067;-38
2023/02/06 07:50:53;;;;;;;;;;;-3.20;80.10;;;;;;5001962;28;87155;-38
2023/02/06 07:53:19;;;;;;;;;;;-3.30;80.00;;;;;;5002158;28;89283;-37
2023/02/06 07:55:44;;;;;;;;;;;-3.20;80.00;;;;;;5001702;28;88402;-37
2023/02/06 07:58:12;;;;;;;;;;;-3.30;80.00;;;;;;5002036;28;87037;-37
2023/02/06 08:00:39;;;;;;;;;;;-3.30;80.10;;;;;;5002410;28;88814;-38
2023/02/06 08:03:05;;;;;;;;;;;-3.20;80.10;;;;;;5003017;28;89399;-37
2023/02/06 08:05:30;;;;;;;;;;;-3.30;80.10;;;;;;5004946;28;87122;-37
2023/02/06 08:07:56;;;;;;;;;;;-3.30;80.10;;;;;;5007300;28;88764;-37
2023/02/06 08:10:22;;;;;;;;;;;-3.30;80.20;;;;;;5005410;28;87180;-37
2023/02/06 08:12:47;;;;;;;;;;;-3.30;80.30;;;;;;5005368;28;88691;-37
2023/02/06 08:15:13;;;;;;;;;;;-3.30;80.30;;;;;;5005183;28;88031;-37
2023/02/06 08:17:41;;;;;;;;;;;-3.30;80.30;;;;;;5005518;28;87135;-37
2023/02/06 08:20:08;;;;;;;;;;;-3.30;80.20;;;;;;5005075;28;88698;-37
2023/02/06 08:22:33;;;;;;;;;;;-3.30;80.30;;;;;;5004621;28;89642;-37
2023/02/06 08:24:59;;;;;;;;;;;-3.30;80.30;;;;;;5005695;28;86281;-38
2023/02/06 08:27:24;;;;;;;;;;;-3.30;80.20;;;;;;5005168;28;88382;-37
2023/02/06 08:29:50;;;;;;;;;;;-3.30;80.20;;;;;;5007563;28;89172;-37
2023/02/06 08:32:16;;;;;;;;;;;-3.30;80.10;;;;;;5004448;28;88977;-37
2023/02/06 08:34:41;;;;;;;;;;;-3.30;80.10;;;;;;5004778;28;89596;-37
2023/02/06 08:37:07;;;;;;;;;;;-3.30;80.00;;;;;;5004922;28;87092;-37
2023/02/06 08:39:32;;;;;;;;;;;-3.30;80.00;;;;;;5004936;28;89045;-37
2023/02/06 08:41:58;;;;;;;;;;;-3.20;80.00;;;;;;5004590;28;89452;-37
2023/02/06 08:44:23;;;;;;;;;;;-3.30;79.90;;;;;;5005177;28;87124;-37
2023/02/06 08:46:49;;;;;;;;;;;-3.30;79.90;;;;;;5004735;28;87749;-37
2023/02/06 08:49:15;;;;;;;;;;;-3.30;79.90;;;;;;5007821;28;87918;-37
2023/02/06 08:51:41;;;;;;;;;;;-3.30;80.00;;;;;;5004360;28;88261;-37
2023/02/06 08:54:09;;;;;;;;;;;-3.20;79.80;;;;;;5004253;28;89332;-37
2023/02/06 08:56:35;;;;;;;;;;;-3.30;79.70;;;;;;5004111;28;88243;-37
2023/02/06 08:59:02;;;;;;;;;;;-3.30;79.80;;;;;;5004554;28;90124;-37
2023/02/06 09:01:28;;;;;;;;;;;-3.20;79.70;;;;;;5004376;28;89403;-37
2023/02/06 09:03:55;;;;;;;;;;;-3.20;79.70;;;;;;5004609;28;87145;-37
2023/02/06 09:06:20;;;;;;;;;;;-3.30;79.60;;;;;;5004149;28;87319;-37
2023/02/06 09:08:46;;;;;;;;;;;-3.20;79.30;;;;;;5004183;28;89636;-37
2023/02/06 09:11:14;;;;;;;;;;;-3.20;79.30;;;;;;5007507;28;86693;-37
2023/02/06 09:13:40;;;;;;;;;;;-3.20;79.10;;;;;;5004448;28;88910;-37
2023/02/06 09:16:06;;;;;;;;;;;-3.20;79.00;;;;;;5004622;28;87138;-37
2023/02/06 09:18:32;;;;;;;;;;;-3.20;79.00;;;;;;5004128;28;88968;-37
2023/02/06 09:21:06;;;;;;;;;;;-3.30;79.10;;;;;;5003229;28;90416;-37
2023/02/06 09:23:31;;;;;;;;;;;-3.30;79.20;;;;;;5004430;28;86966;-37
2023/02/06 09:25:57;;;;;;;;;;;-3.30;79.20;;;;;;5004250;28;88783;-37
2023/02/06 09:28:22;;;;;;;;;;;-3.30;79.10;;;;;;5003794;28;89456;-37
2023/02/06 09:30:48;;;;;;;;;;;-3.30;79.20;;;;;;5003972;28;87203;-37
2023/02/06 09:33:13;;;;;;;;;;;-3.30;79.80;;;;;;5006690;28;88741;-37
2023/02/06 09:35:39;;;;;;;;;;;-3.30;79.20;;;;;;5004137;28;87087;-37
2023/02/06 09:38:04;;;;;;;;;;;-3.30;79.20;;;;;;5004589;28;88521;-37
2023/02/06 09:40:31;;;;;;;;;;;-3.30;79.10;;;;;;5004208;28;87316;-37
2023/02/06 09:42:57;;;;;;;;;;;-3.30;79.00;;;;;;5004114;28;87085;-37
2023/02/06 09:45:24;;;;;;;;;;;-3.30;79.10;;;;;;5003372;28;88707;-37
2023/02/06 09:47:55;;;;;;;;;;;-3.30;78.90;;;;;;5003344;28;91772;-37
2023/02/06 09:50:21;;;;;;;;;;;-3.30;78.90;;;;;;5003642;28;87511;-37
2023/02/06 09:52:52;;;;;;;;;;;-3.30;78.90;;;;;;5004127;28;87556;-37
2023/02/06 09:55:22;;;;;;;;;;;-3.20;78.90;;;;;;5006166;28;88319;-37
2023/02/06 09:57:47;;;;;;;;;;;-3.20;78.90;;;;;;5003699;28;88948;-37
2023/02/06 10:00:32;;;;;;;;;;;-3.30;79.00;;;;;;5003572;28;88457;-37
2023/02/06 10:03:09;;;;;;;;;;;-3.20;79.10;;;;;;5004072;28;86574;-37
2023/02/06 10:05:53;;;;;;;;;;;-3.20;79.00;;;;;;5003347;28;88152;-37
2023/02/06 10:08:27;;;;;;;;;;;-3.20;79.00;;;;;;5003292;28;88592;-37
2023/02/06 10:11:00;;;;;;;;;;;-3.20;78.90;;;;;;5002833;28;88290;-37
2023/02/06 10:13:33;;;;;;;;;;;-3.20;79.00;;;;;;5003071;28;89641;-37
2023/02/06 10:16:06;;;;;;;;;;;-3.20;78.90;;;;;;5003115;28;89354;-37
2023/02/06 10:18:38;;;;;;;;;;;-3.20;78.90;;;;;;5006198;28;87749;-37
2023/02/06 10:21:09;;;;;;;;;;;-3.10;78.90;;;;;;5003058;28;88317;-37
2023/02/06 10:23:46;;;;;;;;;;;-3.10;78.80;;;;;;5003337;28;87089;-37
2023/02/06 10:26:17;;;;;;;;;;;-3.20;78.80;;;;;;5002960;28;86977;-37
2023/02/06 10:28:44;;;;;;;;;;;-3.10;78.80;;;;;;5003363;28;88568;-37
2023/02/06 10:31:24;;;;;;;;;;;-3.10;78.80;;;;;;5003139;28;87139;-37
2023/02/06 10:33:52;;;;;;;;;;;-3.10;78.90;;;;;;5003563;28;87469;-37
2023/02/06 10:36:38;;;;;;;;;;;-3.20;78.90;;;;;;5001796;28;89530;-37
2023/02/06 10:39:22;;;;;;;;;;;-3.20;79.00;;;;;;5002488;28;86953;-37
2023/02/06 10:42:11;;;;;;;;;;;-3.20;78.90;;;;;;5005916;28;87419;-37
2023/02/06 10:44:48;;;;;;;;;;;-3.10;78.90;;;;;;5002636;28;87109;-37
2023/02/06 10:47:40;;;;;;;;;;;-3.10;78.80;;;;;;5003512;28;87312;-37
2023/02/06 10:50:12;;;;;;;;;;;-3.10;78.70;;;;;;5000392;28;89561;-37
2023/02/06 10:52:38;;;;;;;;;;;-3.10;78.70;;;;;;5003093;28;86963;-37
2023/02/06 10:55:14;;;;;;;;;;;-3.10;78.60;;;;;;5003391;28;89044;-37
2023/02/06 10:57:41;;;;;;;;;;;-3.10;78.50;;;;;;5002706;28;89694;-37
2023/02/06 11:00:11;;;;;;;;;;;-3.10;78.60;;;;;;5002857;28;87148;-38
2023/02/06 11:02:40;;;;;;;;;;;-3.10;78.50;;;;;;5004738;28;88476;-37
2023/02/06 11:05:08;;;;;;;;;;;-3.10;78.60;;;;;;5002181;28;87136;-37
2023/02/06 11:07:38;;;;;;;;;;;-3.10;78.60;;;;;;5002694;28;88886;-37
2023/02/06 11:10:04;;;;;;;;;;;-3.00;78.60;;;;;;5002300;28;89404;-37
2023/02/06 11:12:34;;;;;;;;;;;-3.10;78.60;;;;;;5002618;28;87178;-37
2023/02/06 11:15:20;;;;;;;;;;;-3.10;78.70;;;;;;5002658;28;90939;-37
2023/02/06 11:17:46;;;;;;;;;;;-3.10;78.50;;;;;;4994459;28;89494;-37
2023/02/06 11:20:19;;;;;;;;;;;-3.10;78.50;;;;;;5002713;28;86363;-37
2023/02/06 11:22:44;;;;;;;;;;;-3.10;78.50;;;;;;5002582;28;87261;-37
2023/02/06 11:25:30;;;;;;;;;;;-3.00;78.50;;;;;;5004849;28;89521;-37
2023/02/06 11:27:56;;;;;;;;;;;-3.00;78.50;;;;;;5001702;28;88566;-37
2023/02/06 11:30:30;;;;;;;;;;;-3.00;78.40;;;;;;5002260;28;87053;-37
2023/02/06 11:33:16;;;;;;;;;;;-3.00;78.40;;;;;;5002189;28;87120;-37
2023/02/06 11:35:53;;;;;;;;;;;-3.00;78.50;;;;;;5001850;28;89318;-37
2023/02/06 11:38:20;;;;;;;;;;;-3.00;78.40;;;;;;5003613;28;89351;-37
2023/02/06 11:40:54;;;;;;;;;;;-3.00;78.40;;;;;;5005937;28;87040;-37
2023/02/06 11:43:21;;;;;;;;;;;-3.00;78.40;;;;;;5005636;28;88874;-37
2023/02/06 11:45:48;;;;;;;;;;;-3.00;78.60;;;;;;5005995;28;88622;-37
2023/02/06 11:48:49;;;;;;;;;;;-3.00;78.80;;;;;;5008638;28;87089;-37
2023/02/06 11:51:15;;;;;;;;;;;-3.00;78.80;;;;;;4963175;28;88574;-37
2023/02/06 11:53:57;;;;;;;;;;;-3.00;79.00;;;;;;4996112;28;88066;-37
2023/02/06 11:56:23;;;;;;;;;;;-3.00;79.10;;;;;;5005584;28;89579;-37
2023/02/06 11:59:26;;;;;;;;;;;-3.00;79.00;;;;;;5005231;28;89606;-37
2023/02/06 12:01:52;;;;;;;;;;;-3.00;79.10;;;;;;4963558;28;87201;-37
2023/02/06 12:04:43;;;;;;;;;;;-3.10;79.00;;;;;;4996832;28;89034;-37
2023/02/06 12:07:09;;;;;;;;;;;-3.10;79.10;;;;;;5002467;28;89681;-37
2023/02/06 12:09:34;;;;;;;;;;;-3.00;79.00;;;;;;5005511;28;87125;-37
2023/02/06 12:12:15;;;;;;;;;;;-3.00;79.00;;;;;;5008170;28;88150;-37
2023/02/06 12:14:40;;;;;;;;;;;-3.00;79.00;;;;;;5005276;28;87046;-37
2023/02/06 12:17:24;;;;;;;;;;;-3.00;79.10;;;;;;5005433;28;88959;-37
2023/02/06 12:19:56;;;;;;;;;;;-3.00;79.10;;;;;;5004217;28;90418;-37
2023/02/06 12:22:22;;;;;;;;;;;-3.10;79.10;;;;;;5005275;28;87026;-37
2023/02/06 12:24:49;;;;;;;;;;;-3.00;79.10;;;;;;5005226;28;87867;-37
2023/02/06 12:27:30;;;;;;;;;;;-3.00;79.10;;;;;;5004715;28;89483;-37
2023/02/06 12:29:56;;;;;;;;;;;-3.00;79.00;;;;;;5005043;28;87156;-37
2023/02/06 12:32:23;;;;;;;;;;;-3.00;79.10;;;;;;5005245;28;88678;-37
2023/02/06 12:34:52;;;;;;;;;;;-3.00;79.20;;;;;;5007614;28;89497;-37
2023/02/06 12:37:25;;;;;;;;;;;-3.00;79.10;;;;;;5005457;28;89127;-37
2023/02/06 12:39:51;;;;;;;;;;;-2.90;79.10;;;;;;5004533;28;89399;-37
2023/02/06 12:42:37;;;;;;;;;;;-2.90;79.00;;;;;;5004869;28;87100;-37
2023/02/06 12:45:23;;;;;;;;;;;-2.90;79.00;;;;;;5003984;28;89110;-37
2023/02/06 12:47:58;;;;;;;;;;;-2.90;79.10;;;;;;5004035;28;88333;-37
2023/02/06 12:50:27;;;;;;;;;;;-2.90;79.10;;;;;;5004462;28;87174;-37
2023/02/06 12:52:58;;;;;;;;;;;-2.90;79.10;;;;;;5004654;28;88797;-37
2023/02/06 12:55:41;;;;;;;;;;;-2.90;79.10;;;;;;5004382;28;89336;-37
2023/02/06 12:58:26;;;;;;;;;;;-2.90;78.90;;;;;;5007553;28;86994;-37
2023/02/06 13:01:01;;;;;;;;;;;-2.90;78.90;;;;;;5004172;28;89132;-37
2023/02/06 13:03:34;;;;;;;;;;;-2.90;79.00;;;;;;5004958;28;86323;-37
2023/02/06 13:06:05;;;;;;;;;;;-2.90;79.00;;;;;;5004126;28;88066;-37
2023/02/06 13:08:41;;;;;;;;;;;-2.90;79.00;;;;;;5004314;28;87329;-37
2023/02/06 13:11:23;;;;;;;;;;;-2.90;78.80;;;;;;5003491;28;88116;-37
2023/02/06 13:13:48;;;;;;;;;;;-2.80;79.00;;;;;;5004624;28;90098;-37
2023/02/06 13:16:15;;;;;;;;;;;-2.90;78.90;;;;;;5003857;28;88674;-37
2023/02/06 13:18:41;;;;;;;;;;;-2.90;78.80;;;;;;5007064;28;87087;-37
2023/02/06 13:21:15;;;;;;;;;;;-2.80;78.80;;;;;;5003961;28;89587;-38
2023/02/06 13:24:10;;;;;;;;;;;-2.80;78.80;;;;;;5004256;28;87086;-37
2023/02/06 13:26:58;;;;;;;;;;;-2.90;78.60;;;;;;5004227;28;91016;-37
2023/02/06 13:29:28;;;;;;;;;;;-2.90;78.70;;;;;;4998554;28;87422;-37
2023/02/06 13:32:13;;;;;;;;;;;-2.90;78.80;;;;;;5004202;28;87095;-37
2023/02/06 13:34:39;;;;;;;;;;;-2.80;78.80;;;;;;5004197;28;88943;-37
2023/02/06 13:37:30;;;;;;;;;;;-2.80;78.80;;;;;;5002973;28;89351;-37
2023/02/06 13:40:19;;;;;;;;;;;-2.90;78.80;;;;;;5004198;28;86880;-37
2023/02/06 13:42:57;;;;;;;;;;;-2.80;78.80;;;;;;5006819;28;88136;-37
2023/02/06 13:45:41;;;;;;;;;;;-2.80;78.60;;;;;;5003806;28;87127;-37
2023/02/06 13:48:06;;;;;;;;;;;-2.80;78.70;;;;;;5003886;28;88710;-37
2023/02/06 13:50:41;;;;;;;;;;;-2.80;78.60;;;;;;5003346;28;89815;-37
2023/02/06 13:53:22;;;;;;;;;;;-2.80;78.70;;;;;;5004093;28;87114;-37
2023/02/06 13:56:00;;;;;;;;;;;-2.80;78.50;;;;;;5004366;28;88992;-37
2023/02/06 13:58:25;;;;;;;;;;;-2.80;78.50;;;;;;5003494;28;89638;-37
2023/02/06 14:00:51;;;;;;;;;;;-2.80;78.30;;;;;;5002897;28;87085;-37
2023/02/06 14:03:25;;;;;;;;;;;-2.80;78.50;;;;;;5002776;28;88676;-37
2023/02/06 14:05:50;;;;;;;;;;;-2.80;78.40;;;;;;5005604;28;89445;-37
2023/02/06 14:08:25;;;;;;;;;;;-2.80;78.30;;;;;;5003593;28;89153;-37
2023/02/06 14:10:54;;;;;;;;;;;-2.80;78.00;;;;;;5003085;28;89350;-37
2023/02/06 14:13:19;;;;;;;;;;;-2.80;78.00;;;;;;5003435;28;87157;-37
2023/02/06 14:16:10;;;;;;;;;;;-2.80;78.00;;;;;;5003473;28;87377;-37
2023/02/06 14:18:44;;;;;;;;;;;-2.80;78.00;;;;;;5003121;28;89405;-37
2023/02/06 14:21:37;;;;;;;;;;;-2.80;77.90;;;;;;5003663;28;86772;-37
2023/02/06 14:24:02;;;;;;;;;;;-2.80;77.50;;;;;;5001265;28;88484;-37
2023/02/06 14:26:47;;;;;;;;;;;-2.80;77.50;;;;;;5002886;28;89360;-37